Time;durP1;ratioP1;P1;durP2;ratioP2;P2;SDS_P1;SDS_P2;PMS_P1;PMS_P2;Temp;Humidity;BMP_temperature;BMP_pressure;BME280_temperature;BME280_humidity;BME280_pressure;Samples;Min_cycle;Max_cycle;Signal;HPM_P1;HPM_P2
2023/09/28 00:02:52;;;;;;;10.85;5.22;;;19.30;99.90;;;;;;5092504;28;20406;-65
2023/09/28 00:05:19;;;;;;;9.05;5.07;;;19.40;99.90;;;;;;5092049;28;20020;-65
2023/09/28 00:07:46;;;;;;;9.98;4.82;;;19.50;99.90;;;;;;5091866;28;20503;-65
2023/09/28 00:10:15;;;;;;;11.15;5.25;;;19.60;99.90;;;;;;5091928;28;20063;-65
2023/09/28 00:12:45;;;;;;;11.77;5.05;;;19.50;99.90;;;;;;5091481;28;20032;-65
2023/09/28 00:15:11;;;;;;;12.10;5.00;;;19.50;99.90;;;;;;5091845;28;20020;-65
2023/09/28 00:17:38;;;;;;;12.07;5.40;;;19.60;99.90;;;;;;5091938;28;20038;-65
2023/09/28 00:20:18;;;;;;;11.55;5.25;;;19.50;99.90;;;;;;5091615;28;20468;-65
2023/09/28 00:22:54;;;;;;;10.23;5.53;;;19.60;99.90;;;;;;5091586;28;20485;-65
2023/09/28 00:25:22;;;;;;;13.13;5.20;;;19.50;99.90;;;;;;5091602;28;20028;-65
2023/09/28 00:27:50;;;;;;;10.55;4.95;;;19.60;99.90;;;;;;5091811;28;20036;-65
2023/09/28 00:30:19;;;;;;;11.00;5.20;;;19.70;99.90;;;;;;5091180;28;20020;-65
2023/09/28 00:32:56;;;;;;;10.45;5.60;;;19.60;99.90;;;;;;5091341;28;20036;-65
2023/09/28 00:35:22;;;;;;;10.10;5.13;;;19.50;99.90;;;;;;5091198;28;20020;-65
2023/09/28 00:37:49;;;;;;;10.93;5.10;;;19.30;99.90;;;;;;5091885;28;20046;-64
2023/09/28 00:40:19;;;;;;;11.98;5.78;;;19.10;99.90;;;;;;5091517;28;20027;-64
2023/09/28 00:42:49;;;;;;;12.50;5.72;;;19.00;99.90;;;;;;5091387;28;20055;-65
2023/09/28 00:45:16;;;;;;;11.25;5.18;;;18.90;99.90;;;;;;5091117;28;20027;-65
2023/09/28 00:47:45;;;;;;;10.43;5.25;;;18.80;99.90;;;;;;5091734;28;20061;-65
2023/09/28 00:50:15;;;;;;;11.60;5.65;;;18.70;99.90;;;;;;5091138;28;20099;-65
2023/09/28 00:52:42;;;;;;;11.90;5.50;;;18.60;99.90;;;;;;5091371;28;20055;-65
2023/09/28 00:55:10;;;;;;;12.50;5.50;;;18.50;99.90;;;;;;5091216;28;20050;-65
2023/09/28 00:57:38;;;;;;;11.60;5.22;;;18.40;99.90;;;;;;5091048;28;20398;-65
2023/09/28 01:00:08;;;;;;;9.95;5.22;;;18.40;99.90;;;;;;5091459;28;20100;-65
2023/09/28 01:02:33;;;;;;;10.15;5.35;;;18.40;99.90;;;;;;5091017;28;20024;-64
2023/09/28 01:04:59;;;;;;;9.98;5.55;;;18.40;99.90;;;;;;5091084;28;20483;-65
2023/09/28 01:07:27;;;;;;;12.27;5.43;;;18.40;99.90;;;;;;5090807;28;20077;-65
2023/09/28 01:09:53;;;;;;;12.02;5.68;;;18.40;99.90;;;;;;5090897;28;20036;-65
2023/09/28 01:12:20;;;;;;;11.90;5.55;;;18.30;99.90;;;;;;5090789;28;20028;-65
2023/09/28 01:14:48;;;;;;;9.98;5.10;;;18.20;99.90;;;;;;5091078;28;20024;-65
2023/09/28 01:17:14;;;;;;;10.07;5.60;;;18.20;99.90;;;;;;5091283;28;20028;-65
2023/09/28 01:19:39;;;;;;;10.13;5.80;;;18.20;99.90;;;;;;5091176;28;20021;-65
2023/09/28 01:22:15;;;;;;;9.65;5.50;;;18.20;99.90;;;;;;5090854;28;20078;-65
2023/09/28 01:24:41;;;;;;;10.52;5.38;;;18.20;99.90;;;;;;5090768;28;20020;-65
2023/09/28 01:27:07;;;;;;;9.18;5.20;;;18.20;99.90;;;;;;5090807;28;20402;-64
2023/09/28 01:29:33;;;;;;;10.13;5.20;;;18.20;99.90;;;;;;5090997;28;20115;-65
2023/09/28 01:31:58;;;;;;;10.80;5.53;;;18.10;99.90;;;;;;5090805;28;20064;-65
2023/09/28 01:34:24;;;;;;;11.57;5.90;;;18.10;99.90;;;;;;5090904;28;20028;-65
2023/09/28 01:36:50;;;;;;;12.50;5.60;;;18.30;99.90;;;;;;5090878;28;20036;-65
2023/09/28 01:39:15;;;;;;;12.48;5.68;;;18.50;99.90;;;;;;5090744;28;20031;-65
2023/09/28 01:41:42;;;;;;;9.25;5.10;;;18.70;99.90;;;;;;5090793;28;20024;-65
2023/09/28 01:44:08;;;;;;;11.20;5.50;;;18.90;99.90;;;;;;5091055;28;20024;-66
2023/09/28 01:46:34;;;;;;;9.85;5.57;;;19.00;99.90;;;;;;5092150;28;20375;-65
2023/09/28 01:48:59;;;;;;;12.30;5.40;;;19.00;99.90;;;;;;5094609;28;20405;-66
2023/09/28 01:51:26;;;;;;;11.63;5.72;;;19.00;99.90;;;;;;5094467;28;20475;-65
2023/09/28 01:53:51;;;;;;;9.48;5.07;;;19.10;99.90;;;;;;5094218;28;20030;-65
2023/09/28 01:56:18;;;;;;;9.48;5.35;;;19.10;99.90;;;;;;5094590;28;20028;-65
2023/09/28 01:58:44;;;;;;;11.10;5.85;;;19.10;99.90;;;;;;5094335;28;20104;-65
2023/09/28 02:01:20;;;;;;;8.90;5.07;;;19.00;99.90;;;;;;5094392;28;20024;-65
2023/09/28 02:03:46;;;;;;;9.88;5.30;;;19.00;99.90;;;;;;5094169;28;20302;-65
2023/09/28 02:06:12;;;;;;;8.40;4.68;;;19.00;99.90;;;;;;5094205;28;20554;-65
2023/09/28 02:08:38;;;;;;;13.40;5.82;;;19.00;99.90;;;;;;5094313;28;20607;-65
2023/09/28 02:11:03;;;;;;;9.85;5.28;;;19.00;99.90;;;;;;5093608;28;20028;-65
2023/09/28 02:13:29;;;;;;;11.68;5.40;;;18.80;99.90;;;;;;5094151;28;20034;-65
2023/09/28 02:15:54;;;;;;;9.68;5.05;;;18.60;99.90;;;;;;5094130;28;20024;-65
2023/09/28 02:18:20;;;;;;;9.68;5.20;;;18.50;99.90;;;;;;5093933;28;20036;-65
2023/09/28 02:20:46;;;;;;;9.35;5.55;;;18.40;99.90;;;;;;5094338;28;20040;-65
2023/09/28 02:23:11;;;;;;;8.70;5.57;;;18.20;99.90;;;;;;5093868;28;20028;-65
2023/09/28 02:25:37;;;;;;;9.13;4.85;;;18.20;99.90;;;;;;5093619;28;20028;-65
2023/09/28 02:28:04;;;;;;;14.50;5.90;;;18.10;99.90;;;;;;5093629;28;20432;-63
2023/09/28 02:30:30;;;;;;;9.85;5.15;;;18.00;99.90;;;;;;5093743;28;20024;-64
2023/09/28 02:32:55;;;;;;;11.48;5.35;;;18.00;99.90;;;;;;5093736;28;20106;-65
2023/09/28 02:35:21;;;;;;;11.20;5.32;;;17.90;99.90;;;;;;5093612;28;20020;-65
2023/09/28 02:37:48;;;;;;;12.65;5.97;;;17.90;99.90;;;;;;5093825;28;20032;-65
2023/09/28 02:40:15;;;;;;;9.43;5.50;;;17.80;99.90;;;;;;5093370;28;20036;-65
2023/09/28 02:42:42;;;;;;;10.77;6.03;;;17.70;99.90;;;;;;5093307;28;20042;-65
2023/09/28 02:45:11;;;;;;;11.85;6.03;;;17.70;99.90;;;;;;5092013;28;20027;-65
2023/09/28 02:47:48;;;;;;;11.90;6.13;;;17.60;99.90;;;;;;5093224;28;20067;-65
2023/09/28 02:50:16;;;;;;;11.98;6.13;;;17.60;99.90;;;;;;5093789;28;20024;-65
2023/09/28 02:52:45;;;;;;;11.32;5.90;;;17.60;99.90;;;;;;5093278;28;20496;-65
2023/09/28 02:55:12;;;;;;;13.70;6.07;;;17.50;99.90;;;;;;5092823;28;20035;-65
2023/09/28 02:57:38;;;;;;;10.15;5.88;;;17.50;99.90;;;;;;5093258;28;20418;-65
2023/09/28 03:00:19;;;;;;;11.30;6.00;;;17.50;99.90;;;;;;5093126;28;20409;-65
2023/09/28 03:02:45;;;;;;;8.50;5.90;;;17.50;99.90;;;;;;5093087;28;20363;-65
2023/09/28 03:05:11;;;;;;;10.85;5.75;;;17.50;99.90;;;;;;5093416;28;20528;-64
2023/09/28 03:07:39;;;;;;;12.95;6.20;;;17.50;99.90;;;;;;5092875;28;20131;-65
2023/09/28 03:10:06;;;;;;;12.68;6.20;;;17.50;99.90;;;;;;5092734;28;20081;-64
2023/09/28 03:12:32;;;;;;;13.65;5.93;;;17.70;99.90;;;;;;5093137;28;20455;-64
2023/09/28 03:14:57;;;;;;;10.00;5.80;;;17.90;99.90;;;;;;5092888;28;20024;-65
2023/09/28 03:17:23;;;;;;;11.27;5.97;;;18.00;99.90;;;;;;5093186;28;20023;-65
2023/09/28 03:19:49;;;;;;;11.73;5.55;;;18.20;99.90;;;;;;5092875;28;20060;-65
2023/09/28 03:22:15;;;;;;;12.23;6.35;;;18.30;99.90;;;;;;5092879;28;20095;-65
2023/09/28 03:24:41;;;;;;;11.65;5.85;;;18.30;99.90;;;;;;5092398;28;20391;-65
2023/09/28 03:27:08;;;;;;;11.95;5.75;;;18.30;99.90;;;;;;5092774;28;20036;-65
2023/09/28 03:29:34;;;;;;;12.93;5.70;;;18.40;99.90;;;;;;5092786;28;20107;-65
2023/09/28 03:32:00;;;;;;;10.02;5.53;;;18.30;99.90;;;;;;5092450;28;20103;-65
2023/09/28 03:34:25;;;;;;;10.52;5.40;;;18.30;99.90;;;;;;5092369;28;20032;-65
2023/09/28 03:36:51;;;;;;;11.52;5.60;;;18.30;99.90;;;;;;5092930;28;20081;-65
2023/09/28 03:39:18;;;;;;;11.90;5.78;;;18.30;99.90;;;;;;5092124;28;20080;-65
2023/09/28 03:41:44;;;;;;;8.98;5.53;;;18.30;99.90;;;;;;5092582;28;20062;-65
2023/09/28 03:44:10;;;;;;;11.38;5.43;;;18.40;99.90;;;;;;5092279;28;20036;-65
2023/09/28 03:46:36;;;;;;;10.25;5.68;;;18.30;99.90;;;;;;5092149;28;20105;-65
2023/09/28 03:49:02;;;;;;;9.05;5.53;;;18.10;99.90;;;;;;5092575;28;20115;-65
2023/09/28 03:51:27;;;;;;;9.90;5.38;;;17.90;99.90;;;;;;5091956;28;20624;-65
2023/09/28 03:53:53;;;;;;;11.00;5.70;;;17.80;99.90;;;;;;5092155;28;20107;-65
2023/09/28 03:56:19;;;;;;;9.75;5.40;;;17.80;99.90;;;;;;5092185;28;20031;-65
2023/09/28 03:58:45;;;;;;;12.60;6.35;;;17.70;99.90;;;;;;5092062;28;20059;-65
2023/09/28 04:01:10;;;;;;;10.88;5.68;;;17.60;99.90;;;;;;5092171;28;20039;-66
2023/09/28 04:03:36;;;;;;;10.65;5.80;;;17.40;99.90;;;;;;5091852;28;20046;-64
2023/09/28 04:06:02;;;;;;;11.27;6.00;;;17.30;99.90;;;;;;5091601;28;20035;-65
2023/09/28 04:08:28;;;;;;;12.27;6.65;;;17.30;99.90;;;;;;5091344;28;20074;-64
2023/09/28 04:10:55;;;;;;;11.60;5.80;;;17.30;99.90;;;;;;5091983;28;20065;-65
2023/09/28 04:13:20;;;;;;;15.70;6.53;;;17.10;99.90;;;;;;5092239;28;20383;-65
2023/09/28 04:15:48;;;;;;;13.45;6.43;;;17.00;99.90;;;;;;5091836;28;20070;-65
2023/09/28 04:18:14;;;;;;;10.90;5.78;;;17.00;99.90;;;;;;5091693;28;20036;-64
2023/09/28 04:20:40;;;;;;;10.38;5.65;;;17.00;99.90;;;;;;5091280;28;20109;-65
2023/09/28 04:23:08;;;;;;;14.02;6.00;;;17.00;99.90;;;;;;5091620;28;20027;-65
2023/09/28 04:25:35;;;;;;;12.02;6.22;;;16.90;99.90;;;;;;5091580;28;20103;-65
2023/09/28 04:28:01;;;;;;;14.60;6.22;;;16.90;99.90;;;;;;5091835;28;20043;-65
2023/09/28 04:30:27;;;;;;;14.20;5.93;;;16.90;99.90;;;;;;5091656;28;20024;-65
2023/09/28 04:32:54;;;;;;;10.25;5.97;;;16.80;99.90;;;;;;5091383;28;20028;-64
2023/09/28 04:35:20;;;;;;;14.88;6.65;;;16.80;99.90;;;;;;5091104;28;20081;-65
2023/09/28 04:37:47;;;;;;;12.80;6.10;;;16.80;99.90;;;;;;5091525;28;20104;-65
2023/09/28 04:40:13;;;;;;;14.27;6.50;;;16.80;99.90;;;;;;5091799;28;20047;-65
2023/09/28 04:42:40;;;;;;;12.52;6.20;;;16.80;99.90;;;;;;5091344;28;20422;-65
2023/09/28 04:45:06;;;;;;;13.52;6.68;;;16.80;99.90;;;;;;5091449;28;20162;-64
2023/09/28 04:47:32;;;;;;;12.82;6.50;;;16.90;99.90;;;;;;5091050;28;20441;-65
2023/09/28 04:49:59;;;;;;;12.18;6.38;;;17.10;99.90;;;;;;5091405;28;20074;-65
2023/09/28 04:52:24;;;;;;;12.65;6.80;;;17.20;99.90;;;;;;5091204;28;20486;-65
2023/09/28 04:54:51;;;;;;;12.23;6.50;;;17.30;99.90;;;;;;5091108;28;20512;-65
2023/09/28 04:57:20;;;;;;;8.68;6.18;;;17.40;99.90;;;;;;5091149;28;20017;-65
2023/09/28 04:59:45;;;;;;;9.88;5.93;;;17.60;99.90;;;;;;5091254;28;20065;-65
2023/09/28 05:02:11;;;;;;;11.68;5.97;;;17.70;99.90;;;;;;5091054;28;20024;-65
2023/09/28 05:04:37;;;;;;;7.80;5.93;;;17.60;99.90;;;;;;5090887;28;20401;-65
2023/09/28 05:07:04;;;;;;;9.18;6.25;;;17.70;99.90;;;;;;5091150;28;20418;-65
2023/09/28 05:09:30;;;;;;;10.07;6.70;;;17.70;99.90;;;;;;5091117;28;20103;-65
2023/09/28 05:12:00;;;;;;;10.88;6.47;;;17.70;99.90;;;;;;5090961;28;20554;-65
2023/09/28 05:14:26;;;;;;;9.77;6.30;;;17.60;99.90;;;;;;5091190;28;20055;-65
2023/09/28 05:16:54;;;;;;;10.23;6.40;;;17.60;99.90;;;;;;5090901;28;20093;-65
2023/09/28 05:19:21;;;;;;;11.85;6.57;;;17.80;99.90;;;;;;5090959;28;20103;-65
2023/09/28 05:21:47;;;;;;;11.05;6.28;;;17.70;99.90;;;;;;5093219;28;20032;-65
2023/09/28 05:24:13;;;;;;;10.68;6.63;;;17.50;99.90;;;;;;5094570;28;20032;-64
2023/09/28 05:26:39;;;;;;;11.13;6.55;;;17.30;99.90;;;;;;5094848;28;20024;-64
2023/09/28 05:29:04;;;;;;;8.57;6.45;;;17.20;99.90;;;;;;5095387;28;20036;-65
2023/09/28 05:31:30;;;;;;;9.70;6.78;;;17.10;99.90;;;;;;5094712;28;20491;-65
2023/09/28 05:33:56;;;;;;;10.80;6.72;;;16.90;99.90;;;;;;5094564;28;20549;-65
2023/09/28 05:36:22;;;;;;;9.45;6.55;;;16.90;99.90;;;;;;5094813;28;20107;-65
2023/09/28 05:38:48;;;;;;;10.30;6.55;;;16.80;99.90;;;;;;5094839;28;20437;-65
2023/09/28 05:41:13;;;;;;;12.73;7.15;;;16.70;99.90;;;;;;5093413;28;20027;-65
2023/09/28 05:43:39;;;;;;;10.77;6.32;;;16.70;99.90;;;;;;5094954;28;20036;-64
2023/09/28 05:46:05;;;;;;;11.43;7.25;;;16.60;99.90;;;;;;5094147;28;20032;-65
2023/09/28 05:48:30;;;;;;;12.57;7.50;;;16.60;99.90;;;;;;5094201;28;20522;-65
2023/09/28 05:50:56;;;;;;;10.60;7.13;;;16.50;99.90;;;;;;5094738;28;20028;-65
2023/09/28 05:53:22;;;;;;;11.20;7.22;;;16.50;99.90;;;;;;5094395;28;20028;-65
2023/09/28 05:55:51;;;;;;;12.48;7.85;;;16.40;99.90;;;;;;5094548;28;20034;-65
2023/09/28 05:58:16;;;;;;;10.50;7.60;;;16.30;99.90;;;;;;5094419;28;20453;-65
2023/09/28 06:00:42;;;;;;;14.77;7.20;;;16.30;99.90;;;;;;5094014;28;20108;-64
2023/09/28 06:03:08;;;;;;;12.27;7.78;;;16.40;99.90;;;;;;5093763;28;20466;-65
2023/09/28 06:05:33;;;;;;;12.40;7.43;;;16.40;99.90;;;;;;5094390;28;20028;-64
2023/09/28 06:08:00;;;;;;;11.27;6.57;;;16.30;99.90;;;;;;5094020;28;20532;-65
2023/09/28 06:10:26;;;;;;;10.77;7.05;;;16.30;99.90;;;;;;5093718;28;20020;-66
2023/09/28 06:12:52;;;;;;;11.75;6.90;;;16.40;99.90;;;;;;5093493;28;20032;-65
2023/09/28 06:15:18;;;;;;;10.95;7.00;;;16.50;99.90;;;;;;5094277;28;20024;-65
2023/09/28 06:17:43;;;;;;;12.75;7.25;;;16.40;99.90;;;;;;5093696;28;20478;-65
2023/09/28 06:20:09;;;;;;;11.85;7.28;;;16.40;99.90;;;;;;5093791;28;20478;-65
2023/09/28 06:22:35;;;;;;;10.32;7.25;;;16.50;99.90;;;;;;5094030;28;20024;-65
2023/09/28 06:25:02;;;;;;;12.88;7.60;;;16.60;99.90;;;;;;5094297;28;20509;-65
2023/09/28 06:27:28;;;;;;;11.63;7.45;;;16.80;99.90;;;;;;5093550;28;20039;-65
2023/09/28 06:29:54;;;;;;;10.88;7.28;;;17.00;99.90;;;;;;5093711;28;20064;-65
2023/09/28 06:32:21;;;;;;;10.95;7.65;;;17.20;99.90;;;;;;5092927;28;20048;-65
2023/09/28 06:34:47;;;;;;;9.98;8.23;;;17.40;99.90;;;;;;5092633;28;20080;-65
2023/09/28 06:37:13;;;;;;;13.57;8.07;;;17.50;99.90;;;;;;5093664;28;20099;-65
2023/09/28 06:39:39;;;;;;;13.38;7.75;;;17.60;99.90;;;;;;5093757;28;20463;-63
2023/09/28 06:42:05;;;;;;;10.25;7.57;;;17.70;99.90;;;;;;5093443;28;20119;-64
2023/09/28 06:44:30;;;;;;;12.23;8.00;;;17.80;99.90;;;;;;5092239;28;20145;-65
2023/09/28 06:46:57;;;;;;;10.90;7.00;;;17.80;99.90;;;;;;5092938;28;20032;-65
2023/09/28 06:49:23;;;;;;;11.80;7.90;;;17.90;99.90;;;;;;5093521;28;20020;-66
2023/09/28 06:51:49;;;;;;;12.70;7.85;;;18.00;99.90;;;;;;5093635;28;20407;-66
2023/09/28 06:54:16;;;;;;;10.48;7.35;;;18.10;99.90;;;;;;5092888;28;20050;-66
2023/09/28 06:56:42;;;;;;;10.55;7.95;;;18.10;99.90;;;;;;5093108;28;20028;-65
2023/09/28 06:59:08;;;;;;;10.88;7.50;;;18.30;99.90;;;;;;5093043;28;20026;-65
2023/09/28 07:01:35;;;;;;;11.65;7.22;;;18.10;99.90;;;;;;5092898;28;20024;-66
2023/09/28 07:04:00;;;;;;;11.00;7.47;;;18.00;99.90;;;;;;5093217;28;20032;-65
2023/09/28 07:06:26;;;;;;;11.43;8.15;;;17.90;99.90;;;;;;5093033;28;20050;-65
2023/09/28 07:08:55;;;;;;;9.27;7.25;;;17.80;99.90;;;;;;5093445;28;20070;-65
2023/09/28 07:11:20;;;;;;;11.48;7.82;;;17.70;99.90;;;;;;5092950;28;20526;-65
2023/09/28 07:13:46;;;;;;;9.88;7.20;;;17.60;99.90;;;;;;5093086;28;20072;-63
2023/09/28 07:16:12;;;;;;;12.77;8.05;;;17.60;99.90;;;;;;5092745;28;20480;-63
2023/09/28 07:18:37;;;;;;;10.88;6.90;;;17.70;99.90;;;;;;5092995;28;20050;-63
2023/09/28 07:21:03;;;;;;;13.13;7.57;;;17.70;99.90;;;;;;5092970;28;20032;-62
2023/09/28 07:23:29;;;;;;;11.40;7.25;;;17.80;99.90;;;;;;5092187;28;20025;-63
2023/09/28 07:25:55;;;;;;;14.30;7.60;;;17.80;99.90;;;;;;5091981;28;20500;-64
2023/09/28 07:28:21;;;;;;;12.60;8.07;;;17.70;99.90;;;;;;5092671;28;20751;-62
2023/09/28 07:30:47;;;;;;;11.77;7.53;;;17.70;99.90;;;;;;5091921;28;20028;-62
2023/09/28 07:33:15;;;;;;;12.27;7.32;;;17.60;99.90;;;;;;5092532;28;20028;-69
2023/09/28 07:35:43;;;;;;;11.13;7.35;;;17.70;99.90;;;;;;5092198;28;20032;-66
2023/09/28 07:38:10;;;;;;;13.75;7.50;;;17.80;99.90;;;;;;5092390;28;20552;-66
2023/09/28 07:40:35;;;;;;;10.65;7.22;;;17.80;99.90;;;;;;5092575;28;20032;-65
2023/09/28 07:43:01;;;;;;;9.68;7.13;;;17.80;99.90;;;;;;5092189;28;20016;-66
2023/09/28 07:45:27;;;;;;;11.27;7.35;;;17.80;99.90;;;;;;5091414;28;20032;-66
2023/09/28 07:47:52;;;;;;;9.63;6.95;;;17.90;99.90;;;;;;5091957;28;20388;-66
2023/09/28 07:50:18;;;;;;;11.50;6.85;;;17.90;99.90;;;;;;5092185;28;20031;-65
2023/09/28 07:52:44;;;;;;;12.38;7.15;;;18.00;99.90;;;;;;5091921;28;20502;-66
2023/09/28 07:55:12;;;;;;;11.30;6.90;;;18.10;99.90;;;;;;5092087;28;20032;-66
2023/09/28 07:57:39;;;;;;;9.18;6.85;;;18.10;99.90;;;;;;5090807;28;20107;-66
2023/09/28 08:00:11;;;;;;;12.50;6.40;;;18.20;99.90;;;;;;5091906;28;20035;-66
2023/09/28 08:02:38;;;;;;;11.88;6.78;;;18.30;99.90;;;;;;5091992;28;20458;-66
2023/09/28 08:05:04;;;;;;;10.35;6.63;;;18.50;99.90;;;;;;5092030;28;20093;-66
2023/09/28 08:07:33;;;;;;;10.07;6.78;;;18.60;99.90;;;;;;5092264;28;20055;-66
2023/09/28 08:10:00;;;;;;;11.77;6.20;;;18.90;99.90;;;;;;5091899;28;20031;-66
2023/09/28 08:12:26;;;;;;;10.18;6.35;;;19.00;99.90;;;;;;5091945;28;20044;-66
2023/09/28 08:14:52;;;;;;;11.25;6.45;;;19.20;99.90;;;;;;5092043;28;20490;-66
2023/09/28 08:17:19;;;;;;;12.10;5.80;;;19.30;99.90;;;;;;5091852;28;20031;-66
2023/09/28 08:19:45;;;;;;;12.40;5.93;;;19.40;99.90;;;;;;5091702;28;20487;-68
2023/09/28 08:22:11;;;;;;;12.27;5.97;;;19.50;99.90;;;;;;5091774;28;20104;-67
2023/09/28 08:24:37;;;;;;;10.07;6.18;;;19.60;99.90;;;;;;5092120;28;20020;-67
2023/09/28 08:27:04;;;;;;;11.20;5.57;;;19.70;99.90;;;;;;5091262;28;20028;-67
2023/09/28 08:29:30;;;;;;;9.95;5.60;;;19.80;99.90;;;;;;5091643;28;20024;-67
2023/09/28 08:31:57;;;;;;;12.88;5.75;;;19.90;99.90;;;;;;5091634;28;20028;-67
2023/09/28 08:34:23;;;;;;;10.10;5.30;;;20.00;99.90;;;;;;5091829;28;20026;-67
2023/09/28 08:36:50;;;;;;;10.20;5.53;;;20.00;99.90;;;;;;5091684;28;20050;-67
2023/09/28 08:39:16;;;;;;;10.95;5.60;;;20.10;99.90;;;;;;5091761;28;20036;-66
2023/09/28 08:41:43;;;;;;;7.57;5.03;;;20.10;99.90;;;;;;5091135;28;20509;-66
2023/09/28 08:44:10;;;;;;;7.88;4.85;;;20.00;99.90;;;;;;5091204;28;20467;-66
2023/09/28 08:46:39;;;;;;;9.10;5.15;;;19.90;99.90;;;;;;5091064;28;20036;-67
2023/09/28 08:49:10;;;;;;;8.70;4.90;;;19.80;99.90;;;;;;5091857;28;20024;-66
2023/09/28 08:51:38;;;;;;;11.23;5.57;;;19.90;99.90;;;;;;5091541;28;20482;-66
2023/09/28 08:54:07;;;;;;;9.13;5.43;;;19.90;99.90;;;;;;5091207;28;20028;-66
2023/09/28 08:56:35;;;;;;;10.50;5.20;;;19.80;99.90;;;;;;5090634;28;20577;-66
2023/09/28 08:59:03;;;;;;;8.55;4.70;;;19.90;99.90;;;;;;5091319;28;20024;-66
2023/09/28 09:01:31;;;;;;;8.05;4.50;;;20.00;99.90;;;;;;5091137;28;20647;-66
2023/09/28 09:03:57;;;;;;;10.25;4.93;;;20.00;99.90;;;;;;5091550;28;20028;-66
2023/09/28 09:06:24;;;;;;;9.15;4.53;;;20.10;99.90;;;;;;5091009;28;20056;-66
2023/09/28 09:08:50;;;;;;;9.68;5.03;;;20.20;99.90;;;;;;5090934;28;20039;-65
2023/09/28 09:11:16;;;;;;;8.90;4.80;;;20.20;99.90;;;;;;5090791;28;20055;-66
2023/09/28 09:13:55;;;;;;;8.80;4.32;;;20.30;99.90;;;;;;5091498;28;20486;-66
2023/09/28 09:16:25;;;;;;;8.68;4.40;;;20.40;99.90;;;;;;5091090;28;20039;-66
2023/09/28 09:18:54;;;;;;;8.43;4.45;;;20.40;99.90;;;;;;5091064;28;20107;-66
2023/09/28 09:21:24;;;;;;;8.57;4.28;;;20.50;99.90;;;;;;5090944;28;20402;-66
2023/09/28 09:24:03;;;;;;;7.25;3.75;;;20.50;99.90;;;;;;5091054;28;20020;-66
2023/09/28 09:26:39;;;;;;;8.55;4.28;;;20.60;99.90;;;;;;5090777;28;20058;-66
2023/09/28 09:29:04;;;;;;;8.57;3.90;;;20.70;99.90;;;;;;5091053;28;20090;-66
2023/09/28 09:31:30;;;;;;;6.88;3.83;;;20.70;99.90;;;;;;5090863;28;20024;-66
2023/09/28 09:33:56;;;;;;;7.90;4.15;;;20.80;99.90;;;;;;5090893;28;20066;-66
2023/09/28 09:36:22;;;;;;;7.57;3.70;;;20.90;99.90;;;;;;5090894;28;20020;-67
2023/09/28 09:38:50;;;;;;;7.03;3.75;;;21.00;99.90;;;;;;5091150;28;20020;-67
2023/09/28 09:41:16;;;;;;;6.60;3.47;;;21.20;99.90;;;;;;5090401;28;20036;-66
2023/09/28 09:43:42;;;;;;;6.97;3.38;;;21.30;99.90;;;;;;5090911;28;20024;-67
2023/09/28 09:46:09;;;;;;;5.60;3.00;;;21.50;99.90;;;;;;5090820;28;20038;-67
2023/09/28 09:48:44;;;;;;;5.13;3.13;;;21.60;99.90;;;;;;5090533;28;20128;-66
2023/09/28 09:51:12;;;;;;;6.03;3.05;;;21.90;99.90;;;;;;5090792;28;20024;-67
2023/09/28 09:53:42;;;;;;;7.07;3.58;;;22.10;99.90;;;;;;5090902;28;20488;-67
2023/09/28 09:56:09;;;;;;;5.72;2.75;;;22.30;99.90;;;;;;5090740;28;20381;-67
2023/09/28 09:58:48;;;;;;;6.68;3.15;;;22.40;99.90;;;;;;5090585;28;20024;-67
2023/09/28 10:01:17;;;;;;;5.15;2.90;;;22.50;99.90;;;;;;5090648;28;20505;-67
2023/09/28 10:03:50;;;;;;;5.80;3.10;;;22.60;99.90;;;;;;5090641;28;20020;-67
2023/09/28 10:06:17;;;;;;;5.15;3.03;;;22.70;99.90;;;;;;5090596;28;20111;-67
2023/09/28 10:08:45;;;;;;;6.10;2.90;;;22.80;99.90;;;;;;5093475;28;20526;-67
2023/09/28 10:11:12;;;;;;;5.78;3.05;;;22.90;99.90;;;;;;5094736;28;20453;-67
2023/09/28 10:13:38;;;;;;;4.63;2.95;;;22.90;99.90;;;;;;5094291;28;20069;-67
2023/09/28 10:16:05;;;;;;;6.88;3.13;;;23.00;99.90;;;;;;5092838;28;20495;-66
2023/09/28 10:18:35;;;;;;;5.97;2.65;;;23.10;99.90;;;;;;5094271;28;20028;-66
2023/09/28 10:21:01;;;;;;;5.47;3.00;;;23.00;99.90;;;;;;5093978;28;20052;-66
2023/09/28 10:23:28;;;;;;;3.50;2.80;;;22.90;99.90;;;;;;5093654;28;20024;-66
2023/09/28 10:26:18;;;;;;;4.90;3.00;;;22.70;99.90;;;;;;5094461;28;20095;-66
2023/09/28 10:29:06;;;;;;;6.18;2.88;;;22.70;99.90;;;;;;5094013;28;20502;-67
2023/09/28 10:31:37;;;;;;;5.43;2.67;;;22.80;99.90;;;;;;5093979;28;20494;-66
2023/09/28 10:34:07;;;;;;;3.72;2.45;;;23.00;99.90;;;;;;5093795;28;20024;-67
2023/09/28 10:36:34;;;;;;;6.13;3.10;;;23.00;99.90;;;;;;5093561;28;20099;-67
2023/09/28 10:39:15;;;;;;;4.15;2.67;;;23.00;99.90;;;;;;5093634;28;20028;-67
2023/09/28 10:41:45;;;;;;;5.15;2.67;;;23.00;99.90;;;;;;5093885;28;20668;-67
2023/09/28 10:44:16;;;;;;;2.75;2.33;;;23.10;99.90;;;;;;5094072;28;20020;-66
2023/09/28 10:46:42;;;;;;;4.32;2.33;;;23.20;99.90;;;;;;5093281;28;20028;-67
2023/09/28 10:49:08;;;;;;;4.53;2.55;;;23.30;99.90;;;;;;5093692;28;20025;-67
2023/09/28 10:51:34;;;;;;;3.03;2.05;;;23.40;99.90;;;;;;5093404;28;20039;-66
2023/09/28 10:54:04;;;;;;;2.75;2.00;;;23.50;99.90;;;;;;5093089;28;20020;-66
2023/09/28 10:56:29;;;;;;;4.68;2.33;;;23.50;99.90;;;;;;5093472;28;20035;-67
2023/09/28 10:59:00;;;;;;;4.57;2.30;;;23.50;99.90;;;;;;5093299;28;20028;-66
2023/09/28 11:01:26;;;;;;;3.70;2.10;;;23.50;99.90;;;;;;5093200;28;20051;-67
2023/09/28 11:03:54;;;;;;;3.97;2.28;;;23.60;99.90;;;;;;5093196;28;20027;-67
2023/09/28 11:06:20;;;;;;;3.75;2.55;;;23.70;99.90;;;;;;5093599;28;20024;-66
2023/09/28 11:08:46;;;;;;;3.10;2.10;;;23.80;99.90;;;;;;5092733;28;20043;-67
2023/09/28 11:11:14;;;;;;;3.80;1.98;;;23.80;99.90;;;;;;5093074;28;20046;-67
2023/09/28 11:13:40;;;;;;;4.03;2.20;;;23.90;99.90;;;;;;5093582;28;20035;-67
2023/09/28 11:16:07;;;;;;;2.97;2.20;;;24.10;99.90;;;;;;5092936;28;20032;-67
2023/09/28 11:18:33;;;;;;;3.30;2.33;;;24.20;99.90;;;;;;5092754;28;20383;-67
2023/09/28 11:20:59;;;;;;;2.78;2.10;;;24.50;99.90;;;;;;5092614;28;20042;-66
2023/09/28 11:23:25;;;;;;;3.75;2.65;;;24.80;99.90;;;;;;5092954;28;20524;-67
2023/09/28 11:25:52;;;;;;;3.92;2.58;;;24.90;99.90;;;;;;5093038;28;20024;-67
2023/09/28 11:28:18;;;;;;;3.70;2.35;;;25.10;99.90;;;;;;5092860;28;20038;-67
2023/09/28 11:30:43;;;;;;;3.72;2.08;;;25.20;99.90;;;;;;5093074;28;20016;-68
2023/09/28 11:33:09;;;;;;;3.38;2.40;;;25.30;99.90;;;;;;5092626;28;20437;-68
2023/09/28 11:35:38;;;;;;;3.10;2.05;;;25.40;99.90;;;;;;5092256;28;20032;-66
2023/09/28 11:38:10;;;;;;;3.85;2.20;;;25.50;99.90;;;;;;5092629;28;20024;-66
2023/09/28 11:40:39;;;;;;;3.45;2.28;;;25.60;99.90;;;;;;5092982;28;20032;-66
2023/09/28 11:43:05;;;;;;;4.72;2.67;;;25.60;99.90;;;;;;5092969;28;20070;-65
2023/09/28 11:45:33;;;;;;;4.45;2.20;;;25.70;99.90;;;;;;5092549;28;20095;-65
2023/09/28 11:48:04;;;;;;;3.97;2.45;;;25.70;99.90;;;;;;5092326;28;20402;-65
2023/09/28 11:50:32;;;;;;;2.80;2.35;;;25.90;99.90;;;;;;5092254;28;20058;-66
2023/09/28 11:52:58;;;;;;;3.10;2.10;;;25.90;99.90;;;;;;5092612;28;20032;-65
2023/09/28 11:55:25;;;;;;;2.65;2.03;;;26.00;99.90;;;;;;5092411;28;20031;-65
2023/09/28 11:57:50;;;;;;;3.45;1.98;;;26.10;99.90;;;;;;5092382;28;20436;-66
2023/09/28 12:00:19;;;;;;;4.30;2.42;;;26.10;99.90;;;;;;5092132;28;20027;-66
2023/09/28 12:02:48;;;;;;;2.97;2.10;;;26.10;99.90;;;;;;5092434;28;20028;-66
2023/09/28 12:05:14;;;;;;;3.88;1.92;;;26.00;99.90;;;;;;5091977;28;20016;-66
2023/09/28 12:07:41;;;;;;;4.07;2.40;;;26.00;99.90;;;;;;5091940;28;20032;-66
2023/09/28 12:10:17;;;;;;;4.97;2.05;;;26.10;99.90;;;;;;5092268;28;20060;-66
2023/09/28 12:12:44;;;;;;;4.03;2.22;;;26.10;99.90;;;;;;5091964;28;20040;-65
2023/09/28 12:15:14;;;;;;;2.92;1.85;;;26.20;99.90;;;;;;5092083;28;20032;-65
2023/09/28 12:17:41;;;;;;;4.43;2.38;;;26.20;99.90;;;;;;5091883;28;20043;-66
2023/09/28 12:20:09;;;;;;;3.28;2.40;;;26.30;99.90;;;;;;5091439;28;20030;-66
2023/09/28 12:22:35;;;;;;;3.55;2.17;;;26.40;99.90;;;;;;5092011;28;20066;-66
2023/09/28 12:25:02;;;;;;;4.13;2.22;;;26.50;99.90;;;;;;5091632;28;20035;-66
2023/09/28 12:27:30;;;;;;;5.93;2.55;;;26.60;99.90;;;;;;5091955;28;20028;-66
2023/09/28 12:29:55;;;;;;;5.75;2.40;;;26.70;99.90;;;;;;5091431;28;20122;-65
2023/09/28 12:32:22;;;;;;;3.08;2.30;;;26.80;99.90;;;;;;5091571;28;20455;-65
2023/09/28 12:34:47;;;;;;;4.63;2.40;;;26.70;99.90;;;;;;5091242;28;20032;-65
2023/09/28 12:37:13;;;;;;;5.10;2.35;;;26.70;99.90;;;;;;5092018;28;20047;-66
2023/09/28 12:39:39;;;;;;;4.78;2.15;;;26.80;99.90;;;;;;5091570;28;20397;-65
2023/09/28 12:42:04;;;;;;;4.25;2.47;;;26.90;99.90;;;;;;5091393;28;20433;-66